Uni-arise — 3FSV7 — position and weather

sailwx.info

Track history (hours):
 
Tides and Currents Weather Stations Pressure Air Temp Water Temp Dewpoint Dewpoint Depression Visibility Wind Speed Wind Dir Waves Ship Positions

Uni-arise

Last reported at 2017-Oct-17 01:58 UTC. Time now 2017-Oct-20 19:53 UTC.
Position N 22°05' E 120°10'.

Length 165 m; draft 8.5 m.

Type: Ship (hazmat cat D). MMSI: 351608000.

Date/timePositionNaut miles runAvg speedWind from/ knotsBaromVisibWave heightAir tempDewpointWater temp
2017-Oct-17 01:58N 22°05' E 120°10'715.6
2017-Oct-17 01:30N 22°12' E 120°11'815.9
2017-Oct-17 01:00N 22°20' E 120°12'815.6
2017-Oct-17 00:30N 22°28' E 120°13'611.8
2017-Oct-17 00:00N 22°33' E 120°16'3 0.1
2017-Oct-15 23:55N 22°33' E 120°20'3 7.4
2017-Oct-15 23:30N 22°33' E 120°16'510.1
2017-Oct-15 23:00N 22°28' E 120°13'714.0
2017-Oct-15 22:30N 22°21' E 120°13'  
2017-Oct-10 04:20N 22°14' E 120°13'516.0
2017-Oct-10 04:00N 22°19' E 120°13'815.4
2017-Oct-10 03:30N 22°27' E 120°13'612.4
2017-Oct-10 03:00N 22°33' E 120°15'4 0.2
2017-Oct-09 03:12N 22°33' E 120°20'1 3.9
2017-Oct-09 03:00N 22°33' E 120°19'3 5.9
2017-Oct-09 02:30N 22°33' E 120°16'2 3.5
2017-Oct-09 02:00N 22°32' E 120°14'2 4.8
2017-Oct-09 01:30N 22°30' E 120°13'5 9.8
2017-Oct-09 01:00N 22°25' E 120°13'  
Track history (hours):
 
Tides and Currents Weather Stations Pressure Air Temp Water Temp Dewpoint Dewpoint Depression Visibility Wind Speed Wind Dir Waves Ship Positions

Uni-arise

Last reported at 2017-Oct-17 01:58 UTC. Time now 2017-Oct-20 19:54 UTC.
Position N 22°05' E 120°10'.

Length 165 m; draft 8.5 m.

Type: Ship (hazmat cat D). MMSI: 351608000.

Date/timePositionNaut miles runAvg speedWind from/ knotsBaromVisibWave heightAir tempDewpointWater temp
2017-Oct-17 01:58N 22°05' E 120°10'715.6
2017-Oct-17 01:30N 22°12' E 120°11'815.9
2017-Oct-17 01:00N 22°20' E 120°12'815.6
2017-Oct-17 00:30N 22°28' E 120°13'611.8
2017-Oct-17 00:00N 22°33' E 120°16'3 0.1
2017-Oct-15 23:55N 22°33' E 120°20'3 7.4
2017-Oct-15 23:30N 22°33' E 120°16'510.1
2017-Oct-15 23:00N 22°28' E 120°13'714.0
2017-Oct-15 22:30N 22°21' E 120°13'  
2017-Oct-10 04:20N 22°14' E 120°13'516.0
2017-Oct-10 04:00N 22°19' E 120°13'815.4
2017-Oct-10 03:30N 22°27' E 120°13'612.4
2017-Oct-10 03:00N 22°33' E 120°15'4 0.2
2017-Oct-09 03:12N 22°33' E 120°20'1 3.9
2017-Oct-09 03:00N 22°33' E 120°19'3 5.9
2017-Oct-09 02:30N 22°33' E 120°16'2 3.5
2017-Oct-09 02:00N 22°32' E 120°14'2 4.8
2017-Oct-09 01:30N 22°30' E 120°13'5 9.8
2017-Oct-09 01:00N 22°25' E 120°13'  

Dump ship's entire track history